createdAt,value
2022-11-20T00:01:34.355Z,99357.41
2022-11-20T00:04:02.676Z,99347.47
2022-11-20T00:06:33.412Z,99358.63
2022-11-20T00:09:02.662Z,99363.97
2022-11-20T00:11:32.690Z,99369.34
2022-11-20T00:14:02.846Z,99358.91
2022-11-20T00:16:34.469Z,99371.16
2022-11-20T00:19:02.819Z,99383.72
2022-11-20T00:21:31.406Z,99410.16
2022-11-20T00:24:00.361Z,99416.91
2022-11-20T00:26:30.519Z,99413.41
2022-11-20T00:29:02.233Z,99410.66
2022-11-20T00:31:31.596Z,99409.09
2022-11-20T00:33:59.634Z,99403.72
2022-11-20T00:36:30.088Z,99416.78
2022-11-20T00:38:59.517Z,99429.81
2022-11-20T00:41:29.873Z,99421.50
2022-11-20T00:43:58.578Z,99427.28
2022-11-20T00:46:28.579Z,99420.06
2022-11-20T00:48:56.763Z,99398.63
2022-11-20T00:51:26.864Z,99375.75
2022-11-20T00:53:58.161Z,99349.78
2022-11-20T00:56:26.061Z,99320.38
2022-11-20T00:58:53.942Z,99251.16
2022-11-20T01:01:25.341Z,99217.81
2022-11-20T01:03:55.719Z,99178.28
2022-11-20T01:06:27.224Z,99082.56
2022-11-20T01:08:58.079Z,99094.06
2022-11-20T01:11:29.065Z,99114.03
2022-11-20T01:13:58.899Z,99168.06
2022-11-20T01:16:29.822Z,99154.59
2022-11-20T01:19:01.240Z,99140.06
2022-11-20T01:21:41.550Z,99128.59
2022-11-20T01:24:15.720Z,99169.22
2022-11-20T01:26:45.773Z,99197.56
2022-11-20T01:29:31.500Z,99235.44
2022-11-20T01:31:59.073Z,99231.16
2022-11-20T01:34:27.012Z,99200.00
2022-11-20T01:36:55.095Z,99213.25
2022-11-20T01:39:28.056Z,99232.69
2022-11-20T01:42:15.460Z,99233.03
2022-11-20T01:45:00.369Z,99249.00
2022-11-20T01:47:44.899Z,99255.84
2022-11-20T01:50:27.575Z,99245.13
2022-11-20T01:53:09.659Z,99237.94
2022-11-20T01:55:52.543Z,99228.28
2022-11-20T01:58:28.472Z,99220.19
2022-11-20T02:00:57.377Z,99209.84
2022-11-20T02:03:25.602Z,99216.03
2022-11-20T02:06:23.358Z,99226.75
2022-11-20T02:08:52.065Z,99219.84
2022-11-20T02:11:20.601Z,99231.31
2022-11-20T02:13:49.520Z,99256.13
2022-11-20T02:16:28.383Z,99250.41
2022-11-20T02:18:58.800Z,99237.47
2022-11-20T02:21:35.592Z,99233.63
2022-11-20T02:24:11.612Z,99227.16
2022-11-20T02:26:52.243Z,99219.13
2022-11-20T02:29:27.521Z,99231.38
2022-11-20T02:31:57.797Z,99221.47
2022-11-20T02:34:25.322Z,99216.88
2022-11-20T02:36:54.205Z,99221.50
2022-11-20T02:39:24.317Z,99210.09
2022-11-20T02:41:54.843Z,99205.50
2022-11-20T02:44:22.380Z,99199.44
2022-11-20T02:46:50.222Z,99206.38
2022-11-20T02:49:18.102Z,99218.66
2022-11-20T02:51:46.056Z,99220.97
2022-11-20T02:54:13.554Z,99205.66
2022-11-20T02:56:41.540Z,99214.13
2022-11-20T02:59:09.451Z,99219.56
2022-11-20T03:01:37.449Z,99217.22
2022-11-20T03:04:05.297Z,99224.84
2022-11-20T03:06:33.522Z,99234.00
2022-11-20T03:09:00.990Z,99238.66
2022-11-20T03:11:29.363Z,99227.09
2022-11-20T03:13:56.868Z,99230.50
2022-11-20T03:16:25.284Z,99226.34
2022-11-20T03:18:54.695Z,99224.78
2022-11-20T03:21:22.542Z,99210.22
2022-11-20T03:23:50.152Z,99210.22
2022-11-20T03:26:24.695Z,99224.00
2022-11-20T03:28:56.200Z,99233.16
2022-11-20T03:31:34.081Z,99231.69
2022-11-20T03:34:02.692Z,99226.38
2022-11-20T03:36:31.378Z,99234.84
2022-11-20T03:38:59.307Z,99243.28
2022-11-20T03:41:32.461Z,99234.13
2022-11-20T03:44:03.289Z,99247.16
2022-11-20T03:46:31.704Z,99239.91
2022-11-20T03:48:59.455Z,99248.72
2022-11-20T03:51:34.012Z,99235.69
2022-11-20T03:54:07.754Z,99240.25
2022-11-20T03:56:40.119Z,99230.28
2022-11-20T03:59:10.987Z,99228.66
2022-11-20T04:01:38.997Z,99235.06
2022-11-20T04:04:06.739Z,99213.66
2022-11-20T04:06:39.073Z,99202.53
2022-11-20T04:09:07.774Z,99211.28
2022-11-20T04:11:38.365Z,99210.09
2022-11-20T04:14:08.730Z,99205.91
2022-11-20T04:16:37.651Z,99212.47
2022-11-20T04:19:11.254Z,99217.84
2022-11-20T04:21:40.494Z,99215.91
2022-11-20T04:24:08.598Z,99227.00
2022-11-20T04:26:36.436Z,99225.50
2022-11-20T04:29:05.070Z,99234.66
2022-11-20T04:31:36.290Z,99229.19
2022-11-20T04:34:07.055Z,99246.66
2022-11-20T04:36:36.139Z,99237.47
2022-11-20T04:39:07.341Z,99244.34
2022-11-20T04:41:37.477Z,99250.13
2022-11-20T04:44:06.668Z,99237.16
2022-11-20T04:46:37.239Z,99237.94
2022-11-20T04:49:05.384Z,99229.00
2022-11-20T04:51:33.927Z,99243.09
2022-11-20T04:54:01.816Z,99241.19
2022-11-20T04:56:29.984Z,99253.53
2022-11-20T04:59:01.789Z,99258.88
2022-11-20T05:01:30.238Z,99256.97
2022-11-20T05:03:57.733Z,99275.28
2022-11-20T05:06:25.800Z,99281.41
2022-11-20T05:08:53.412Z,99279.84
2022-11-20T05:11:22.267Z,99291.72
2022-11-20T05:13:51.876Z,99298.88
2022-11-20T05:16:23.155Z,99301.44
2022-11-20T05:18:53.569Z,99301.00
2022-11-20T05:21:21.988Z,99307.47
2022-11-20T05:23:49.514Z,99299.75
2022-11-20T05:26:20.992Z,99306.22
2022-11-20T05:28:49.591Z,99317.41
2022-11-20T05:31:27.790Z,99319.69
2022-11-20T05:33:58.376Z,99318.81
2022-11-20T05:36:26.757Z,99307.59
2022-11-20T05:38:59.743Z,99315.63
2022-11-20T05:41:29.835Z,99319.00
2022-11-20T05:43:58.948Z,99317.81
2022-11-20T05:46:28.966Z,99312.47
2022-11-20T05:48:58.957Z,99298.31
2022-11-20T05:51:28.099Z,99298.75
2022-11-20T05:53:58.854Z,99299.44
2022-11-20T05:56:26.664Z,99301.69
2022-11-20T05:58:54.202Z,99305.56
2022-11-20T06:01:25.514Z,99303.94
2022-11-20T06:03:56.233Z,99300.81
2022-11-20T06:06:24.314Z,99297.03
2022-11-20T06:08:51.826Z,99297.38
2022-11-20T06:11:20.150Z,99295.91
2022-11-20T06:13:49.580Z,99295.19
2022-11-20T06:16:20.727Z,99307.81
2022-11-20T06:18:48.841Z,99323.50
2022-11-20T06:21:20.879Z,99320.06
2022-11-20T06:23:50.342Z,99321.94
2022-11-20T06:26:25.163Z,99349.84
2022-11-20T06:28:54.052Z,99362.81
2022-11-20T06:31:26.935Z,99362.09
2022-11-20T06:33:54.642Z,99362.53
2022-11-20T06:36:24.189Z,99370.72
2022-11-20T06:38:52.610Z,99364.56
2022-11-20T06:41:23.137Z,99349.66
2022-11-20T06:43:51.470Z,99363.78
2022-11-20T06:46:20.794Z,99360.78
2022-11-20T06:48:50.096Z,99366.13
2022-11-20T06:51:18.660Z,99350.69
2022-11-20T06:53:46.603Z,99351.03
2022-11-20T06:56:14.462Z,99371.69
2022-11-20T06:58:42.172Z,99380.31
2022-11-20T07:01:15.757Z,99371.00
2022-11-20T07:03:44.179Z,99371.81
2022-11-20T07:06:12.343Z,99384.75
2022-11-20T07:08:39.955Z,99403.91
2022-11-20T07:11:09.422Z,99410.09
2022-11-20T07:13:36.935Z,99421.22
2022-11-20T07:16:08.310Z,99423.91
2022-11-20T07:18:37.237Z,99430.06
2022-11-20T07:21:08.721Z,99431.13
2022-11-20T07:23:37.311Z,99437.19
2022-11-20T07:26:10.958Z,99433.56
2022-11-20T07:28:38.933Z,99451.28
2022-11-20T07:31:08.550Z,99454.56
2022-11-20T07:33:36.310Z,99449.91
2022-11-20T07:36:04.664Z,99453.00
2022-11-20T07:38:32.490Z,99453.78
2022-11-20T07:41:02.753Z,99435.41
2022-11-20T07:43:30.972Z,99433.41
2022-11-20T07:46:02.064Z,99439.13
2022-11-20T07:48:29.818Z,99461.97
2022-11-20T07:50:58.135Z,99473.44
2022-11-20T07:53:25.990Z,99493.56
2022-11-20T07:55:53.963Z,99498.13
2022-11-20T07:58:22.798Z,99492.09
2022-11-20T08:00:50.788Z,99488.91
2022-11-20T08:03:24.275Z,99496.34
2022-11-20T08:05:53.147Z,99517.44
2022-11-20T08:08:21.730Z,99512.31
2022-11-20T08:10:50.133Z,99527.94
2022-11-20T08:13:36.433Z,99524.06
2022-11-20T08:16:04.901Z,99513.63
2022-11-20T08:18:32.942Z,99527.75
2022-11-20T08:21:07.393Z,99524.41
2022-11-20T08:23:35.040Z,99523.94
2022-11-20T08:26:03.477Z,99537.06
2022-11-20T08:28:33.350Z,99536.63
2022-11-20T08:31:03.472Z,99539.22
2022-11-20T08:33:34.191Z,99538.44
2022-11-20T08:36:06.579Z,99531.19
2022-11-20T08:38:34.576Z,99535.25
2022-11-20T08:41:24.094Z,99531.16
2022-11-20T08:43:53.098Z,99539.31
2022-11-20T08:46:21.618Z,99541.25
2022-11-20T08:48:49.303Z,99528.88
2022-11-20T08:51:20.103Z,99523.91
2022-11-20T08:53:49.667Z,99526.13
2022-11-20T08:56:18.583Z,99512.09
2022-11-20T08:59:16.549Z,99522.97
2022-11-20T09:01:54.200Z,99526.78
2022-11-20T09:04:22.145Z,99534.47
2022-11-20T09:06:52.159Z,99534.22
2022-11-20T09:09:20.186Z,99532.75
2022-11-20T09:11:48.307Z,99546.09
2022-11-20T09:14:16.407Z,99546.09
2022-11-20T09:16:47.489Z,99544.09
2022-11-20T09:22:03.279Z,99541.00
2022-11-20T09:24:30.968Z,99526.97
2022-11-20T09:26:58.814Z,99523.38
2022-11-20T09:29:26.273Z,99533.41
2022-11-20T09:31:54.064Z,99530.38
2022-11-20T09:34:21.708Z,99535.84
2022-11-20T09:36:49.557Z,99533.88
2022-11-20T09:39:17.040Z,99527.22
2022-11-20T09:42:32.827Z,99533.25
2022-11-20T09:45:39.819Z,99544.72
2022-11-20T09:48:53.279Z,99543.84
2022-11-20T09:51:38.281Z,99554.63
2022-11-20T09:54:21.040Z,99553.41
2022-11-20T09:56:59.542Z,99546.63
2022-11-20T09:59:55.116Z,99552.50
2022-11-20T10:02:29.969Z,99561.75
2022-11-20T10:05:16.831Z,99555.72
2022-11-20T10:07:50.124Z,99552.94
2022-11-20T10:10:39.703Z,99550.81
2022-11-20T10:13:29.985Z,99562.19
2022-11-20T10:16:20.127Z,99564.84
2022-11-20T10:19:12.957Z,99568.72
2022-11-20T10:22:26.039Z,99564.41
2022-11-20T10:25:16.077Z,99552.28
2022-11-20T10:28:11.111Z,99560.19
2022-11-20T10:30:44.383Z,99552.97
2022-11-20T10:33:22.290Z,99559.31
2022-11-20T10:36:13.706Z,99549.63
2022-11-20T10:38:54.112Z,99561.31
2022-11-20T10:41:37.043Z,99560.19
2022-11-20T10:44:15.863Z,99558.88
2022-11-20T10:46:47.233Z,99561.88
2022-11-20T10:49:21.457Z,99562.00
2022-11-20T10:52:22.267Z,99568.31
2022-11-20T10:55:08.895Z,99571.13
2022-11-20T10:58:16.708Z,99570.34
2022-11-20T11:00:44.636Z,99574.22
2022-11-20T11:03:33.746Z,99584.91
2022-11-20T11:06:28.376Z,99577.56
2022-11-20T11:09:02.621Z,99586.94
2022-11-20T11:11:34.168Z,99580.25
2022-11-20T11:14:10.688Z,99583.91
2022-11-20T11:16:56.604Z,99591.91
2022-11-20T11:19:24.911Z,99582.25
2022-11-20T11:21:57.660Z,99580.38
2022-11-20T11:24:44.434Z,99581.59
2022-11-20T11:27:18.797Z,99587.72
2022-11-20T11:29:49.612Z,99574.47
2022-11-20T11:32:22.889Z,99572.91
2022-11-20T11:35:28.318Z,99557.56
2022-11-20T11:38:13.553Z,99555.78
2022-11-20T11:40:41.751Z,99565.13
2022-11-20T11:43:44.242Z,99566.69
2022-11-20T11:46:49.586Z,99575.03
2022-11-20T11:49:21.946Z,99580.47
2022-11-20T11:52:20.506Z,99574.25
2022-11-20T11:55:07.135Z,99580.13
2022-11-20T11:57:58.842Z,99574.00
2022-11-20T12:00:27.474Z,99582.78
2022-11-20T12:03:27.041Z,99583.94
2022-11-20T12:06:13.966Z,99573.69
2022-11-20T12:08:56.981Z,99590.38
2022-11-20T12:12:04.493Z,99592.28
2022-11-20T12:14:40.442Z,99587.50
2022-11-20T12:17:15.912Z,99584.72
2022-11-20T12:19:43.573Z,99597.81
2022-11-20T12:22:29.998Z,99606.47
2022-11-20T12:25:17.832Z,99621.63
2022-11-20T12:28:22.775Z,99620.59
2022-11-20T12:31:14.675Z,99620.44
2022-11-20T12:34:02.916Z,99615.00
2022-11-20T12:36:57.369Z,99611.66
2022-11-20T12:39:35.627Z,99616.69
2022-11-20T12:42:36.901Z,99616.22
2022-11-20T12:45:46.762Z,99618.69
2022-11-20T12:48:49.528Z,99628.00
2022-11-20T12:51:28.751Z,99621.78
2022-11-20T12:54:11.077Z,99632.22
2022-11-20T12:56:51.131Z,99633.00
2022-11-20T13:00:13.868Z,99639.22
2022-11-20T13:03:14.345Z,99638.69
2022-11-20T13:06:27.600Z,99642.03
2022-11-20T13:09:00.624Z,99645.63
2022-11-20T13:11:41.282Z,99652.44
2022-11-20T13:14:55.500Z,99651.41
2022-11-20T13:17:36.332Z,99651.13
2022-11-20T13:20:13.662Z,99648.91
2022-11-20T13:22:47.862Z,99650.91
2022-11-20T13:25:39.398Z,99647.53
2022-11-20T13:28:31.218Z,99630.41
2022-11-20T13:31:00.003Z,99633.94
2022-11-20T13:33:31.836Z,99639.03
2022-11-20T13:36:27.071Z,99639.03
2022-11-20T13:38:57.183Z,99634.59
2022-11-20T13:41:41.055Z,99638.38
2022-11-20T13:44:25.037Z,99646.94
2022-11-20T13:46:53.227Z,99634.06
2022-11-20T13:49:35.321Z,99623.06
2022-11-20T13:52:40.742Z,99616.88
2022-11-20T13:55:17.065Z,99622.31
2022-11-20T13:58:06.055Z,99621.00
2022-11-20T14:00:33.742Z,99622.66
2022-11-20T14:03:07.887Z,99622.47
2022-11-20T14:05:49.635Z,99631.03
2022-11-20T14:08:50.073Z,99630.69
2022-11-20T14:11:26.809Z,99633.84
2022-11-20T14:14:23.449Z,99647.53
2022-11-20T14:16:52.660Z,99640.91
2022-11-20T14:19:29.474Z,99638.91
2022-11-20T14:22:10.788Z,99634.91
2022-11-20T14:24:38.790Z,99636.00
2022-11-20T14:27:11.750Z,99623.78
2022-11-20T14:29:41.601Z,99634.25
2022-11-20T14:32:10.555Z,99640.84
2022-11-20T14:34:45.515Z,99660.66
2022-11-20T14:37:21.209Z,99662.72
2022-11-20T14:39:56.237Z,99664.81
2022-11-20T14:42:29.843Z,99659.63
2022-11-20T14:45:01.206Z,99664.69
2022-11-20T14:47:32.211Z,99655.78
2022-11-20T14:50:07.184Z,99657.25
2022-11-20T14:52:37.905Z,99647.66
2022-11-20T14:55:06.338Z,99629.66
2022-11-20T14:57:36.902Z,99633.06
2022-11-20T15:00:14.429Z,99620.28
2022-11-20T15:02:48.713Z,99621.66
2022-11-20T15:05:19.394Z,99618.63
2022-11-20T15:08:05.414Z,99615.31
2022-11-20T15:10:33.456Z,99607.31
2022-11-20T15:13:13.109Z,99614.75
2022-11-20T15:15:53.013Z,99617.09
2022-11-20T15:18:37.740Z,99613.06
2022-11-20T15:21:13.403Z,99615.84
2022-11-20T15:23:41.627Z,99614.63
2022-11-20T15:26:15.415Z,99611.97
2022-11-20T15:28:48.912Z,99612.16
2022-11-20T15:31:23.839Z,99604.63
2022-11-20T15:33:52.116Z,99597.25
2022-11-20T15:36:19.982Z,99598.84
2022-11-20T15:38:47.518Z,99588.41
2022-11-20T15:41:15.410Z,99583.59
2022-11-20T15:43:43.145Z,99581.38
2022-11-20T15:46:16.344Z,99587.19
2022-11-20T15:48:57.448Z,99586.81
2022-11-20T15:51:34.648Z,99600.63
2022-11-20T15:54:10.694Z,99614.41
2022-11-20T15:56:38.948Z,99638.22
2022-11-20T15:59:06.847Z,99643.44
2022-11-20T16:01:34.689Z,99649.34
2022-11-20T16:04:02.318Z,99644.59
2022-11-20T16:06:32.646Z,99646.69
2022-11-20T16:09:00.259Z,99648.16
2022-11-20T16:11:28.066Z,99652.72
2022-11-20T16:14:14.290Z,99656.25
2022-11-20T16:16:44.088Z,99650.16
2022-11-20T16:19:16.585Z,99648.56
2022-11-20T16:21:45.209Z,99647.00
2022-11-20T16:24:15.056Z,99663.81
2022-11-20T16:26:44.352Z,99670.03
2022-11-20T16:29:15.399Z,99666.16
2022-11-20T16:32:02.179Z,99651.56
2022-11-20T16:34:32.379Z,99658.47
2022-11-20T16:37:00.715Z,99650.34
2022-11-20T16:39:28.308Z,99654.44
2022-11-20T16:41:56.103Z,99653.03
2022-11-20T16:44:23.917Z,99658.69
2022-11-20T16:46:51.928Z,99677.38
2022-11-20T16:49:19.616Z,99676.81
2022-11-20T16:51:47.417Z,99676.94
2022-11-20T16:54:19.431Z,99686.03
2022-11-20T16:56:51.078Z,99688.94
2022-11-20T16:59:21.053Z,99679.34
2022-11-20T17:01:49.254Z,99669.91
2022-11-20T17:04:17.388Z,99670.22
2022-11-20T17:06:45.597Z,99658.91
2022-11-20T17:09:13.887Z,99662.09
2022-11-20T17:11:41.886Z,99663.09
2022-11-20T17:14:13.918Z,99651.69
2022-11-20T17:16:43.003Z,99654.91
2022-11-20T17:19:10.742Z,99646.06
2022-11-20T17:21:39.745Z,99643.63
2022-11-20T17:24:11.395Z,99641.53
2022-11-20T17:26:41.955Z,99630.69
2022-11-20T17:29:29.634Z,99624.47
2022-11-20T17:31:57.487Z,99624.91
2022-11-20T17:34:25.537Z,99620.00
2022-11-20T17:36:54.884Z,99628.97
2022-11-20T17:39:22.358Z,99633.06
2022-11-20T17:42:10.190Z,99627.84
2022-11-20T17:44:37.742Z,99628.75
2022-11-20T17:47:06.106Z,99617.41
2022-11-20T17:49:33.725Z,99620.97
2022-11-20T17:52:02.216Z,99617.19
2022-11-20T17:54:29.742Z,99619.06
2022-11-20T17:57:16.407Z,99610.81
2022-11-20T17:59:43.873Z,99610.28
2022-11-20T18:02:11.670Z,99624.97
2022-11-20T18:04:39.213Z,99627.66
2022-11-20T18:07:07.035Z,99627.66
2022-11-20T18:09:34.559Z,99632.66
2022-11-20T18:12:02.384Z,99624.97
2022-11-20T18:14:32.952Z,99628.09
2022-11-20T18:17:15.480Z,99632.44
2022-11-20T18:20:01.052Z,99636.75
2022-11-20T18:22:35.076Z,99631.53
2022-11-20T18:25:03.499Z,99621.66
2022-11-20T18:27:31.364Z,99623.19
2022-11-20T18:29:58.825Z,99628.97
2022-11-20T18:32:27.326Z,99619.97
2022-11-20T18:34:54.869Z,99621.44
2022-11-20T18:37:22.834Z,99624.09
2022-11-20T18:39:52.072Z,99618.06
2022-11-20T18:42:38.634Z,99627.63
2022-11-20T18:45:07.325Z,99620.75
2022-11-20T18:47:38.892Z,99613.59
2022-11-20T18:50:09.433Z,99599.16
2022-11-20T18:52:44.708Z,99605.72
2022-11-20T18:55:13.041Z,99600.94
2022-11-20T18:57:41.119Z,99583.38
2022-11-20T19:00:10.436Z,99584.03
2022-11-20T19:05:27.105Z,99571.56
2022-11-20T19:07:54.900Z,99578.03
2022-11-20T19:10:24.341Z,99585.38
2022-11-20T19:12:54.350Z,99583.16
2022-11-20T19:15:21.933Z,99579.81
2022-11-20T19:17:49.857Z,99582.50
2022-11-20T19:20:19.078Z,99587.16
2022-11-20T19:22:51.219Z,99585.28
2022-11-20T19:25:19.635Z,99587.50
2022-11-20T19:27:47.861Z,99591.38
2022-11-20T19:30:15.747Z,99602.50
2022-11-20T19:32:43.666Z,99610.28
2022-11-20T19:35:30.040Z,99619.41
2022-11-20T19:38:04.188Z,99612.50
2022-11-20T19:40:33.187Z,99610.97
2022-11-20T19:43:01.185Z,99612.94
2022-11-20T19:45:29.423Z,99624.75
2022-11-20T19:48:08.014Z,99620.97
2022-11-20T19:50:36.226Z,99616.97
2022-11-20T19:53:07.459Z,99622.53
2022-11-20T19:55:35.183Z,99626.28
2022-11-20T19:58:03.736Z,99621.41
2022-11-20T20:00:33.016Z,99621.50
2022-11-20T20:03:01.354Z,99609.84
2022-11-20T20:05:29.062Z,99616.09
2022-11-20T20:07:57.125Z,99612.72
2022-11-20T20:10:24.849Z,99620.41
2022-11-20T20:12:52.952Z,99612.72
2022-11-20T20:15:20.434Z,99612.28
2022-11-20T20:17:48.349Z,99620.72
2022-11-20T20:20:16.703Z,99619.19
2022-11-20T20:22:44.571Z,99612.28
2022-11-20T20:25:13.057Z,99607.94
2022-11-20T20:27:40.850Z,99601.50
2022-11-20T20:30:12.005Z,99604.06
2022-11-20T20:32:41.496Z,99601.84
2022-11-20T20:35:09.504Z,99593.16
2022-11-20T20:37:37.310Z,99598.94
2022-11-20T20:40:05.304Z,99600.91
2022-11-20T20:42:33.917Z,99584.66
2022-11-20T20:45:07.580Z,99576.31
2022-11-20T20:47:40.701Z,99569.97
2022-11-20T20:50:13.272Z,99569.97
2022-11-20T20:52:42.346Z,99554.75
2022-11-20T20:55:13.067Z,99555.19
2022-11-20T20:57:41.814Z,99557.97
2022-11-20T21:00:10.378Z,99555.31
2022-11-20T21:02:38.375Z,99555.75
2022-11-20T21:05:06.428Z,99556.66
2022-11-20T21:07:34.441Z,99552.22
2022-11-20T21:10:02.320Z,99552.34
2022-11-20T21:12:30.257Z,99550.44
2022-11-20T21:14:57.786Z,99542.44
2022-11-20T21:17:27.212Z,99539.31
2022-11-20T21:19:54.964Z,99537.78
2022-11-20T21:22:22.872Z,99548.47
2022-11-20T21:24:50.572Z,99543.91
2022-11-20T21:27:18.347Z,99550.00
2022-11-20T21:29:46.560Z,99544.78
2022-11-20T21:32:14.362Z,99552.88
2022-11-20T21:34:41.889Z,99546.22
2022-11-20T21:37:09.821Z,99547.41
2022-11-20T21:39:50.824Z,99534.19
2022-11-20T21:42:19.209Z,99539.53
2022-11-20T21:44:47.691Z,99532.63
2022-11-20T21:47:15.625Z,99533.31
2022-11-20T21:49:47.660Z,99530.88
2022-11-20T21:52:17.824Z,99541.53
2022-11-20T21:54:49.458Z,99533.06
2022-11-20T21:57:22.560Z,99543.41
2022-11-20T21:59:51.668Z,99562.88
2022-11-20T22:02:19.888Z,99554.88
2022-11-20T22:04:49.826Z,99555.97
2022-11-20T22:07:17.790Z,99542.63
2022-11-20T22:09:46.122Z,99530.88
2022-11-20T22:12:14.076Z,99544.63
2022-11-20T22:14:42.795Z,99540.72
2022-11-20T22:17:15.391Z,99527.72
2022-11-20T22:19:43.070Z,99541.28
2022-11-20T22:22:10.833Z,99535.06
2022-11-20T22:24:38.621Z,99537.94
2022-11-20T22:27:11.639Z,99539.41
2022-11-20T22:29:53.921Z,99533.25
2022-11-20T22:32:39.158Z,99530.81
2022-11-20T22:35:12.814Z,99517.69
2022-11-20T22:37:40.791Z,99524.16
2022-11-20T22:40:22.000Z,99519.25
2022-11-20T22:42:50.419Z,99515.91
2022-11-20T22:45:18.101Z,99498.38
2022-11-20T22:49:05.846Z,99494.25
2022-11-20T22:51:45.961Z,99489.25
2022-11-20T22:57:29.526Z,99493.69
2022-11-20T23:00:00.425Z,99483.03
2022-11-20T23:02:32.027Z,99478.47
2022-11-20T23:05:10.332Z,99489.94
2022-11-20T23:07:41.350Z,99475.91
2022-11-20T23:10:12.669Z,99468.38
2022-11-20T23:12:40.246Z,99454.69
2022-11-20T23:15:09.180Z,99453.91
2022-11-20T23:17:37.741Z,99445.94
2022-11-20T23:20:06.536Z,99438.69
2022-11-20T23:22:34.135Z,99440.38
2022-11-20T23:25:02.103Z,99433.81
2022-11-20T23:27:29.674Z,99431.13
2022-11-20T23:29:59.100Z,99425.47
2022-11-20T23:32:26.728Z,99426.81
2022-11-20T23:34:54.529Z,99416.06
2022-11-20T23:37:22.041Z,99414.50
2022-11-20T23:39:49.991Z,99407.94
2022-11-20T23:42:17.583Z,99409.50
2022-11-20T23:44:45.383Z,99412.16
2022-11-20T23:47:12.859Z,99402.63
2022-11-20T23:49:40.794Z,99405.94
2022-11-20T23:52:08.421Z,99399.47
2022-11-20T23:54:36.246Z,99388.16
2022-11-20T23:57:03.912Z,99386.41
2022-11-20T23:59:31.725Z,99387.63
